Terminal Aerodrome Forecast
Issued by NWS

Home | Current Version | Previous Version | Graphics & Text | Print | Product List | Glossary On
Versions: 1 2 3 4 5 6 7 8 9 10 11 12 13 14 15 16 17 18 19 20 21 22 23
000
FTUS43 KMPX 211100
TAFRNH
TAF
KRNH 211131Z 2112/2212 VRB04KT P6SM SKC
     FM211800 18013KT P6SM FEW020 BKN100
     FM220200 18011KT P6SM SCT010 OVC020
     FM220700 20007KT 4SM BR OVC015=

USA.gov is the U.S. government's official web portal to all federal, state and local government web resources and services.